sensor_id;sensor_type;location;lat;lon;timestamp;pressure;altitude;pressure_sealevel;temperature;humidity
41078;BME280;26823;42.662;23.352;2023-03-15T00:01:35;93791.09;;;6.43;39.93
41078;BME280;26823;42.662;23.352;2023-03-15T00:04:00;93780.91;;;6.34;39.05
41078;BME280;26823;42.662;23.352;2023-03-15T00:06:26;93784.66;;;6.44;39.37
41078;BME280;26823;42.662;23.352;2023-03-15T00:08:51;93775.25;;;6.41;38.75
41078;BME280;26823;42.662;23.352;2023-03-15T00:11:17;93789.38;;;6.57;39.05
41078;BME280;26823;42.662;23.352;2023-03-15T00:13:44;93781.38;;;6.52;40.65
41078;BME280;26823;42.662;23.352;2023-03-15T00:16:10;93777.13;;;6.41;38.58
41078;BME280;26823;42.662;23.352;2023-03-15T00:18:41;93774.47;;;6.35;40.48
41078;BME280;26823;42.662;23.352;2023-03-15T00:21:07;93787.59;;;6.42;41.04
41078;BME280;26823;42.662;23.352;2023-03-15T00:23:32;93784.13;;;6.42;40.15
41078;BME280;26823;42.662;23.352;2023-03-15T00:25:57;93794.13;;;6.31;41.93
41078;BME280;26823;42.662;23.352;2023-03-15T00:28:23;93792.81;;;6.28;41.62
41078;BME280;26823;42.662;23.352;2023-03-15T00:30:48;93793.06;;;6.22;42.76
41078;BME280;26823;42.662;23.352;2023-03-15T00:33:14;93795.56;;;5.97;42.57
41078;BME280;26823;42.662;23.352;2023-03-15T00:35:41;93785.41;;;5.89;43.89
41078;BME280;26823;42.662;23.352;2023-03-15T00:38:07;93785.13;;;5.96;43.23
41078;BME280;26823;42.662;23.352;2023-03-15T00:40:33;93777.41;;;5.74;43.95
41078;BME280;26823;42.662;23.352;2023-03-15T00:43:00;93769.28;;;5.99;43.73
41078;BME280;26823;42.662;23.352;2023-03-15T00:45:25;93760.69;;;5.97;43.97
41078;BME280;26823;42.662;23.352;2023-03-15T00:47:52;93782.94;;;6.13;41.67
41078;BME280;26823;42.662;23.352;2023-03-15T00:50:19;93776.94;;;6.27;41.02
41078;BME280;26823;42.662;23.352;2023-03-15T00:52:44;93778.41;;;6.03;45.09
41078;BME280;26823;42.662;23.352;2023-03-15T00:55:12;93770.38;;;5.88;47.14
41078;BME280;26823;42.662;23.352;2023-03-15T00:57:40;93766.41;;;5.75;48.53
41078;BME280;26823;42.662;23.352;2023-03-15T01:00:11;93763.47;;;5.71;49.33
41078;BME280;26823;42.662;23.352;2023-03-15T01:02:38;93762.94;;;5.64;50.30
41078;BME280;26823;42.662;23.352;2023-03-15T01:05:06;93764.53;;;5.70;50.11
41078;BME280;26823;42.662;23.352;2023-03-15T01:07:31;93748.97;;;5.67;50.25
41078;BME280;26823;42.662;23.352;2023-03-15T01:10:01;93747.69;;;5.49;51.00
41078;BME280;26823;42.662;23.352;2023-03-15T01:12:28;93741.00;;;5.47;51.08
41078;BME280;26823;42.662;23.352;2023-03-15T01:14:53;93746.28;;;5.67;50.29
41078;BME280;26823;42.662;23.352;2023-03-15T01:17:19;93751.41;;;5.64;52.00
41078;BME280;26823;42.662;23.352;2023-03-15T01:19:45;93741.47;;;5.64;51.13
41078;BME280;26823;42.662;23.352;2023-03-15T01:22:10;93745.50;;;5.62;51.62
41078;BME280;26823;42.662;23.352;2023-03-15T01:24:36;93735.34;;;5.53;51.82
41078;BME280;26823;42.662;23.352;2023-03-15T01:27:01;93737.22;;;5.53;51.59
41078;BME280;26823;42.662;23.352;2023-03-15T01:29:26;93735.88;;;5.50;52.10
41078;BME280;26823;42.662;23.352;2023-03-15T01:31:52;93732.44;;;5.45;52.80
41078;BME280;26823;42.662;23.352;2023-03-15T01:34:17;93724.94;;;5.36;53.30
41078;BME280;26823;42.662;23.352;2023-03-15T01:36:43;93732.41;;;5.50;52.44
41078;BME280;26823;42.662;23.352;2023-03-15T01:39:08;93727.00;;;5.65;52.14
41078;BME280;26823;42.662;23.352;2023-03-15T01:41:33;93714.06;;;5.78;52.00
41078;BME280;26823;42.662;23.352;2023-03-15T01:43:59;93707.94;;;5.67;51.64
41078;BME280;26823;42.662;23.352;2023-03-15T01:46:27;93718.94;;;5.65;52.28
41078;BME280;26823;42.662;23.352;2023-03-15T01:49:06;93713.88;;;5.64;51.39
41078;BME280;26823;42.662;23.352;2023-03-15T01:56:54;93705.16;;;5.87;52.31
41078;BME280;26823;42.662;23.352;2023-03-15T01:59:26;93692.09;;;5.70;53.01
41078;BME280;26823;42.662;23.352;2023-03-15T02:01:54;93696.19;;;5.58;53.12
41078;BME280;26823;42.662;23.352;2023-03-15T02:04:28;93701.84;;;5.41;54.54
41078;BME280;26823;42.662;23.352;2023-03-15T02:06:57;93685.25;;;5.38;54.10
41078;BME280;26823;42.662;23.352;2023-03-15T02:09:34;93691.31;;;5.60;53.75
41078;BME280;26823;42.662;23.352;2023-03-15T02:12:03;93674.03;;;5.26;54.23
41078;BME280;26823;42.662;23.352;2023-03-15T02:14:28;93673.44;;;5.34;53.79
41078;BME280;26823;42.662;23.352;2023-03-15T02:16:56;93661.19;;;5.13;54.58
41078;BME280;26823;42.662;23.352;2023-03-15T02:22:11;93671.81;;;5.49;54.30
41078;BME280;26823;42.662;23.352;2023-03-15T02:25:13;93665.41;;;5.34;55.56
41078;BME280;26823;42.662;23.352;2023-03-15T02:27:42;93664.69;;;5.08;54.75
41078;BME280;26823;42.662;23.352;2023-03-15T02:30:10;93649.72;;;4.76;52.64
41078;BME280;26823;42.662;23.352;2023-03-15T02:32:36;93652.41;;;4.71;53.36
41078;BME280;26823;42.662;23.352;2023-03-15T02:35:01;93650.31;;;4.47;51.47
41078;BME280;26823;42.662;23.352;2023-03-15T02:37:27;93655.41;;;4.44;51.97
41078;BME280;26823;42.662;23.352;2023-03-15T02:39:52;93648.16;;;4.34;53.73
41078;BME280;26823;42.662;23.352;2023-03-15T02:42:18;93665.56;;;4.72;53.31
41078;BME280;26823;42.662;23.352;2023-03-15T02:44:44;93672.50;;;4.84;52.29
41078;BME280;26823;42.662;23.352;2023-03-15T02:47:16;93652.16;;;4.83;52.06
41078;BME280;26823;42.662;23.352;2023-03-15T02:49:45;93655.88;;;4.87;53.19
41078;BME280;26823;42.662;23.352;2023-03-15T02:52:13;93657.81;;;4.55;54.36
41078;BME280;26823;42.662;23.352;2023-03-15T02:54:39;93648.16;;;4.60;50.10
41078;BME280;26823;42.662;23.352;2023-03-15T02:57:08;93634.75;;;4.70;50.45
41078;BME280;26823;42.662;23.352;2023-03-15T02:59:33;93654.03;;;4.77;50.27
41078;BME280;26823;42.662;23.352;2023-03-15T03:01:59;93650.03;;;4.49;49.13
41078;BME280;26823;42.662;23.352;2023-03-15T03:04:24;93642.00;;;4.28;49.32
41078;BME280;26823;42.662;23.352;2023-03-15T03:06:50;93636.13;;;4.36;48.76
41078;BME280;26823;42.662;23.352;2023-03-15T03:09:15;93646.56;;;4.64;50.22
41078;BME280;26823;42.662;23.352;2023-03-15T03:11:41;93643.06;;;4.68;51.35
41078;BME280;26823;42.662;23.352;2023-03-15T03:14:06;93618.72;;;4.44;52.33
41078;BME280;26823;42.662;23.352;2023-03-15T03:16:31;93636.13;;;4.31;51.49
41078;BME280;26823;42.662;23.352;2023-03-15T03:18:57;93623.81;;;3.94;51.09
41078;BME280;26823;42.662;23.352;2023-03-15T03:21:22;93631.56;;;4.06;50.47
41078;BME280;26823;42.662;23.352;2023-03-15T03:23:48;93626.22;;;4.27;49.29
41078;BME280;26823;42.662;23.352;2023-03-15T03:26:16;93616.06;;;4.08;49.17
41078;BME280;26823;42.662;23.352;2023-03-15T03:28:45;93622.19;;;4.14;54.07
41078;BME280;26823;42.662;23.352;2023-03-15T03:31:21;93619.28;;;4.36;51.35
41078;BME280;26823;42.662;23.352;2023-03-15T03:33:47;93614.72;;;4.26;50.28
41078;BME280;26823;42.662;23.352;2023-03-15T03:36:13;93609.91;;;4.33;51.27
41078;BME280;26823;42.662;23.352;2023-03-15T03:38:40;93605.03;;;4.46;52.39
41078;BME280;26823;42.662;23.352;2023-03-15T03:41:06;93612.28;;;4.45;52.16
41078;BME280;26823;42.662;23.352;2023-03-15T03:43:32;93594.63;;;4.34;52.20
41078;BME280;26823;42.662;23.352;2023-03-15T03:45:57;93593.84;;;4.33;51.70
41078;BME280;26823;42.662;23.352;2023-03-15T03:48:23;93605.59;;;4.37;51.24
41078;BME280;26823;42.662;23.352;2023-03-15T03:50:48;93606.16;;;4.45;50.65
41078;BME280;26823;42.662;23.352;2023-03-15T03:53:13;93605.59;;;4.43;51.90
41078;BME280;26823;42.662;23.352;2023-03-15T03:55:39;93589.81;;;4.36;51.19
41078;BME280;26823;42.662;23.352;2023-03-15T03:58:07;93591.97;;;4.13;50.37
41078;BME280;26823;42.662;23.352;2023-03-15T04:00:32;93593.56;;;4.09;50.71
41078;BME280;26823;42.662;23.352;2023-03-15T04:02:57;93575.66;;;3.89;50.48
41078;BME280;26823;42.662;23.352;2023-03-15T04:05:23;93597.28;;;3.98;51.26
41078;BME280;26823;42.662;23.352;2023-03-15T04:07:48;93580.44;;;3.82;51.61
41078;BME280;26823;42.662;23.352;2023-03-15T04:10:14;93579.13;;;3.89;50.70
41078;BME280;26823;42.662;23.352;2023-03-15T04:12:41;93582.56;;;3.90;51.28
41078;BME280;26823;42.662;23.352;2023-03-15T04:15:07;93582.56;;;3.85;51.87
41078;BME280;26823;42.662;23.352;2023-03-15T04:17:33;93574.53;;;3.80;52.24
41078;BME280;26823;42.662;23.352;2023-03-15T04:19:58;93571.88;;;3.69;52.27
41078;BME280;26823;42.662;23.352;2023-03-15T04:22:26;93586.31;;;3.68;52.16
41078;BME280;26823;42.662;23.352;2023-03-15T04:24:51;93567.59;;;3.68;52.72
41078;BME280;26823;42.662;23.352;2023-03-15T04:27:18;93577.22;;;3.80;53.14
41078;BME280;26823;42.662;23.352;2023-03-15T04:29:43;93571.34;;;4.03;52.22
41078;BME280;26823;42.662;23.352;2023-03-15T04:32:10;93552.34;;;3.95;52.15
41078;BME280;26823;42.662;23.352;2023-03-15T04:34:35;93570.00;;;4.21;52.02
41078;BME280;26823;42.662;23.352;2023-03-15T04:37:04;93564.38;;;4.18;52.96
41078;BME280;26823;42.662;23.352;2023-03-15T04:39:30;93569.22;;;4.00;52.61
41078;BME280;26823;42.662;23.352;2023-03-15T04:41:55;93574.81;;;3.99;52.52
41078;BME280;26823;42.662;23.352;2023-03-15T04:44:21;93567.06;;;3.97;52.56
41078;BME280;26823;42.662;23.352;2023-03-15T04:46:50;93570.28;;;3.94;52.76
41078;BME280;26823;42.662;23.352;2023-03-15T04:49:16;93563.59;;;3.91;53.34
41078;BME280;26823;42.662;23.352;2023-03-15T04:51:41;93572.16;;;4.09;52.86
41078;BME280;26823;42.662;23.352;2023-03-15T04:54:06;93582.31;;;4.38;51.77
41078;BME280;26823;42.662;23.352;2023-03-15T04:56:32;93586.06;;;4.32;52.61
41078;BME280;26823;42.662;23.352;2023-03-15T04:58:57;93580.16;;;4.09;53.18
41078;BME280;26823;42.662;23.352;2023-03-15T05:01:27;93579.09;;;4.10;53.11
41078;BME280;26823;42.662;23.352;2023-03-15T05:03:54;93572.97;;;3.94;53.47
41078;BME280;26823;42.662;23.352;2023-03-15T05:06:19;93573.50;;;3.91;54.00
41078;BME280;26823;42.662;23.352;2023-03-15T05:08:44;93580.44;;;3.97;54.10
41078;BME280;26823;42.662;23.352;2023-03-15T05:11:11;93588.75;;;4.16;54.33
41078;BME280;26823;42.662;23.352;2023-03-15T05:13:36;93582.56;;;4.41;53.26
41078;BME280;26823;42.662;23.352;2023-03-15T05:16:02;93579.63;;;4.43;54.20
41078;BME280;26823;42.662;23.352;2023-03-15T05:18:27;93569.69;;;4.54;53.47
41078;BME280;26823;42.662;23.352;2023-03-15T05:20:53;93573.41;;;4.68;52.75
41078;BME280;26823;42.662;23.352;2023-03-15T05:23:24;93572.34;;;4.64;53.86
41078;BME280;26823;42.662;23.352;2023-03-15T05:25:53;93581.75;;;4.56;54.93
41078;BME280;26823;42.662;23.352;2023-03-15T05:28:23;93570.22;;;4.61;54.55
41078;BME280;26823;42.662;23.352;2023-03-15T05:30:49;93554.38;;;4.70;53.96
41078;BME280;26823;42.662;23.352;2023-03-15T05:33:22;93572.50;;;4.99;53.05
41078;BME280;26823;42.662;23.352;2023-03-15T05:35:49;93576.00;;;4.99;53.82
41078;BME280;26823;42.662;23.352;2023-03-15T05:38:15;93561.47;;;5.16;54.39
41078;BME280;26823;42.662;23.352;2023-03-15T05:40:42;93530.41;;;5.10;53.27
41078;BME280;26823;42.662;23.352;2023-03-15T05:43:08;93565.00;;;5.01;53.53
41078;BME280;26823;42.662;23.352;2023-03-15T05:45:33;93550.63;;;4.71;54.81
41078;BME280;26823;42.662;23.352;2023-03-15T05:47:59;93570.41;;;4.90;54.36
41078;BME280;26823;42.662;23.352;2023-03-15T05:50:24;93552.94;;;5.03;53.20
41078;BME280;26823;42.662;23.352;2023-03-15T05:52:52;93559.56;;;5.21;53.82
41078;BME280;26823;42.662;23.352;2023-03-15T05:55:17;93559.56;;;5.21;53.51
41078;BME280;26823;42.662;23.352;2023-03-15T05:57:42;93559.28;;;5.23;52.09
41078;BME280;26823;42.662;23.352;2023-03-15T06:00:08;93572.56;;;4.88;51.53
41078;BME280;26823;42.662;23.352;2023-03-15T06:02:34;93576.50;;;5.06;51.54
41078;BME280;26823;42.662;23.352;2023-03-15T06:05:00;93571.31;;;5.31;50.09
41078;BME280;26823;42.662;23.352;2023-03-15T06:07:25;93548.66;;;5.92;47.46
41078;BME280;26823;42.662;23.352;2023-03-15T06:09:51;93554.91;;;6.22;46.76
41078;BME280;26823;42.662;23.352;2023-03-15T06:12:16;93563.44;;;6.59;46.38
41078;BME280;26823;42.662;23.352;2023-03-15T06:14:42;93562.66;;;7.07;46.10
41078;BME280;26823;42.662;23.352;2023-03-15T06:17:07;93559.63;;;7.57;43.72
41078;BME280;26823;42.662;23.352;2023-03-15T06:19:33;93567.91;;;9.25;40.50
41078;BME280;26823;42.662;23.352;2023-03-15T06:21:58;93574.63;;;10.15;37.84
41078;BME280;26823;42.662;23.352;2023-03-15T06:24:31;93567.59;;;10.51;36.46
41078;BME280;26823;42.662;23.352;2023-03-15T06:26:56;93570.75;;;10.44;36.68
41078;BME280;26823;42.662;23.352;2023-03-15T06:29:22;93573.03;;;10.14;37.12
41078;BME280;26823;42.662;23.352;2023-03-15T06:31:48;93569.16;;;9.56;37.89
41078;BME280;26823;42.662;23.352;2023-03-15T06:34:14;93550.88;;;8.55;40.54
41078;BME280;26823;42.662;23.352;2023-03-15T06:36:39;93549.91;;;9.85;39.11
41078;BME280;26823;42.662;23.352;2023-03-15T06:39:09;93564.44;;;10.57;37.18
41078;BME280;26823;42.662;23.352;2023-03-15T06:41:37;93562.25;;;10.59;35.95
41078;BME280;26823;42.662;23.352;2023-03-15T06:44:02;93562.22;;;8.52;39.80
41078;BME280;26823;42.662;23.352;2023-03-15T06:46:28;93529.16;;;8.93;39.98
41078;BME280;26823;42.662;23.352;2023-03-15T06:48:53;93549.34;;;10.11;37.85
41078;BME280;26823;42.662;23.352;2023-03-15T06:51:19;93551.16;;;11.41;35.76
41078;BME280;26823;42.662;23.352;2023-03-15T06:53:44;93567.19;;;12.04;34.84
41078;BME280;26823;42.662;23.352;2023-03-15T06:56:10;93552.53;;;12.32;33.12
41078;BME280;26823;42.662;23.352;2023-03-15T06:58:35;93556.81;;;12.59;33.48
41078;BME280;26823;42.662;23.352;2023-03-15T07:01:01;93552.22;;;12.24;34.14
41078;BME280;26823;42.662;23.352;2023-03-15T07:03:26;93528.63;;;11.23;34.90
41078;BME280;26823;42.662;23.352;2023-03-15T07:05:52;93547.91;;;9.91;37.98
41078;BME280;26823;42.662;23.352;2023-03-15T07:08:19;93545.56;;;9.61;39.49
41078;BME280;26823;42.662;23.352;2023-03-15T07:10:45;93541.44;;;11.00;36.78
41078;BME280;26823;42.662;23.352;2023-03-15T07:13:11;93537.47;;;10.98;36.36
41078;BME280;26823;42.662;23.352;2023-03-15T07:15:37;93543.53;;;10.40;37.12
41078;BME280;26823;42.662;23.352;2023-03-15T07:18:03;93532.47;;;9.91;38.68
41078;BME280;26823;42.662;23.352;2023-03-15T07:20:28;93534.50;;;9.86;38.77
41078;BME280;26823;42.662;23.352;2023-03-15T07:22:54;93552.22;;;10.15;38.38
41078;BME280;26823;42.662;23.352;2023-03-15T07:25:19;93549.25;;;9.66;38.97
41078;BME280;26823;42.662;23.352;2023-03-15T07:27:49;93536.13;;;9.36;39.73
41078;BME280;26823;42.662;23.352;2023-03-15T07:30:15;93550.31;;;10.15;38.09
41078;BME280;26823;42.662;23.352;2023-03-15T07:32:41;93529.41;;;10.07;38.07
41078;BME280;26823;42.662;23.352;2023-03-15T07:35:07;93532.47;;;10.82;36.78
41078;BME280;26823;42.662;23.352;2023-03-15T07:37:33;93538.50;;;11.19;36.15
41078;BME280;26823;42.662;23.352;2023-03-15T07:39:58;93553.28;;;11.80;34.20
41078;BME280;26823;42.662;23.352;2023-03-15T07:42:25;93546.22;;;12.84;32.42
41078;BME280;26823;42.662;23.352;2023-03-15T07:44:50;93549.16;;;13.56;31.01
41078;BME280;26823;42.662;23.352;2023-03-15T07:47:16;93545.25;;;14.38;29.83
41078;BME280;26823;42.662;23.352;2023-03-15T07:49:41;93543.94;;;14.78;29.08
41078;BME280;26823;42.662;23.352;2023-03-15T07:52:07;93555.66;;;15.03;29.03
41078;BME280;26823;42.662;23.352;2023-03-15T07:54:32;93546.97;;;16.50;27.54
41078;BME280;26823;42.662;23.352;2023-03-15T07:56:58;93543.94;;;16.95;26.69
41078;BME280;26823;42.662;23.352;2023-03-15T07:59:24;93550.34;;;16.18;28.56
41078;BME280;26823;42.662;23.352;2023-03-15T08:01:49;93506.88;;;15.97;27.98
41078;BME280;26823;42.662;23.352;2023-03-15T08:04:15;93522.34;;;15.19;28.78
41078;BME280;26823;42.662;23.352;2023-03-15T08:06:41;93524.25;;;13.15;31.17
41078;BME280;26823;42.662;23.352;2023-03-15T08:09:06;93533.19;;;13.16;32.28
41078;BME280;26823;42.662;23.352;2023-03-15T08:11:32;93529.66;;;14.05;30.50
41078;BME280;26823;42.662;23.352;2023-03-15T08:13:58;93514.94;;;13.85;31.60
41078;BME280;26823;42.662;23.352;2023-03-15T08:16:23;93520.63;;;14.34;29.83
41078;BME280;26823;42.662;23.352;2023-03-15T08:18:48;93509.53;;;14.06;30.93
41078;BME280;26823;42.662;23.352;2023-03-15T08:21:14;93492.69;;;13.70;30.72
41078;BME280;26823;42.662;23.352;2023-03-15T08:23:40;93485.81;;;15.44;29.45
41078;BME280;26823;42.662;23.352;2023-03-15T08:26:05;93499.69;;;16.90;27.31
41078;BME280;26823;42.662;23.352;2023-03-15T08:28:31;93509.00;;;16.73;28.25
41078;BME280;26823;42.662;23.352;2023-03-15T08:30:56;93502.53;;;17.41;29.34
41078;BME280;26823;42.662;23.352;2023-03-15T08:33:21;93494.81;;;16.83;26.61
41078;BME280;26823;42.662;23.352;2023-03-15T08:35:52;93513.25;;;15.76;27.97
41078;BME280;26823;42.662;23.352;2023-03-15T08:38:17;93515.31;;;14.72;29.16
41078;BME280;26823;42.662;23.352;2023-03-15T08:40:43;93509.19;;;15.82;27.75
41078;BME280;26823;42.662;23.352;2023-03-15T08:43:08;93506.69;;;15.40;28.63
41078;BME280;26823;42.662;23.352;2023-03-15T08:45:34;93503.81;;;14.87;29.79
41078;BME280;26823;42.662;23.352;2023-03-15T08:47:59;93492.94;;;14.99;29.45
41078;BME280;26823;42.662;23.352;2023-03-15T08:50:26;93476.50;;;15.33;29.29
41078;BME280;26823;42.662;23.352;2023-03-15T08:52:53;93508.84;;;14.30;30.23
41078;BME280;26823;42.662;23.352;2023-03-15T08:55:19;93514.00;;;14.44;30.65
41078;BME280;26823;42.662;23.352;2023-03-15T08:57:44;93501.19;;;13.60;31.62
41078;BME280;26823;42.662;23.352;2023-03-15T09:00:11;93511.97;;;13.09;32.68
41078;BME280;26823;42.662;23.352;2023-03-15T09:02:42;93492.53;;;12.60;33.57
41078;BME280;26823;42.662;23.352;2023-03-15T09:05:07;93498.59;;;12.56;33.98
41078;BME280;26823;42.662;23.352;2023-03-15T09:07:37;93490.13;;;12.58;33.23
41078;BME280;26823;42.662;23.352;2023-03-15T09:10:03;93504.84;;;12.39;34.48
41078;BME280;26823;42.662;23.352;2023-03-15T09:12:28;93511.22;;;14.11;33.89
41078;BME280;26823;42.662;23.352;2023-03-15T09:14:54;93501.94;;;12.53;33.86
41078;BME280;26823;42.662;23.352;2023-03-15T09:17:19;93500.06;;;12.36;35.01
41078;BME280;26823;42.662;23.352;2023-03-15T09:19:45;93491.16;;;11.74;35.59
41078;BME280;26823;42.662;23.352;2023-03-15T09:22:10;93505.84;;;12.17;34.79
41078;BME280;26823;42.662;23.352;2023-03-15T09:24:36;93495.59;;;11.79;35.92
41078;BME280;26823;42.662;23.352;2023-03-15T09:27:02;93495.31;;;11.98;35.44
41078;BME280;26823;42.662;23.352;2023-03-15T09:29:27;93481.25;;;10.86;36.61
41078;BME280;26823;42.662;23.352;2023-03-15T09:31:53;93473.50;;;9.85;38.77
41078;BME280;26823;42.662;23.352;2023-03-15T09:34:19;93501.75;;;10.78;37.41
41078;BME280;26823;42.662;23.352;2023-03-15T09:36:44;93491.75;;;11.45;36.64
41078;BME280;26823;42.662;23.352;2023-03-15T09:39:10;93483.94;;;11.43;36.60
41078;BME280;26823;42.662;23.352;2023-03-15T09:49:49;93473.63;;;10.48;37.67
41078;BME280;26823;42.662;23.352;2023-03-15T09:55:11;93438.09;;;10.40;37.87
41078;BME280;26823;42.662;23.352;2023-03-15T09:57:40;93468.16;;;11.37;37.73
41078;BME280;26823;42.662;23.352;2023-03-15T10:00:12;93473.78;;;12.02;36.33
41078;BME280;26823;42.662;23.352;2023-03-15T10:02:43;93463.56;;;11.64;36.16
41078;BME280;26823;42.662;23.352;2023-03-15T10:05:22;93462.13;;;11.66;36.70
41078;BME280;26823;42.662;23.352;2023-03-15T10:07:50;93477.88;;;11.29;36.99
41078;BME280;26823;42.662;23.352;2023-03-15T10:10:18;93486.44;;;11.14;38.11
41078;BME280;26823;42.662;23.352;2023-03-15T10:13:18;93464.28;;;11.12;37.12
41078;BME280;26823;42.662;23.352;2023-03-15T10:20:57;93470.59;;;11.65;39.00
41078;BME280;26823;42.662;23.352;2023-03-15T10:23:54;93481.91;;;12.11;35.61
41078;BME280;26823;42.662;23.352;2023-03-15T10:26:27;93467.75;;;12.05;36.68
41078;BME280;26823;42.662;23.352;2023-03-15T10:28:53;93465.16;;;11.56;36.42
41078;BME280;26823;42.662;23.352;2023-03-15T10:31:24;93464.81;;;11.31;37.39
41078;BME280;26823;42.662;23.352;2023-03-15T10:33:52;93411.66;;;11.44;36.02
41078;BME280;26823;42.662;23.352;2023-03-15T10:36:23;93464.69;;;11.80;36.32
41078;BME280;26823;42.662;23.352;2023-03-15T10:38:49;93463.28;;;12.00;36.55
41078;BME280;26823;42.662;23.352;2023-03-15T10:41:29;93475.50;;;11.63;36.59
41078;BME280;26823;42.662;23.352;2023-03-15T10:44:04;93474.91;;;11.83;35.91
41078;BME280;26823;42.662;23.352;2023-03-15T10:46:30;93465.66;;;12.02;37.43
41078;BME280;26823;42.662;23.352;2023-03-15T10:49:07;93426.47;;;11.47;37.37
41078;BME280;26823;42.662;23.352;2023-03-15T10:51:47;93457.84;;;12.00;37.86
41078;BME280;26823;42.662;23.352;2023-03-15T10:54:21;93457.53;;;11.58;36.15
41078;BME280;26823;42.662;23.352;2023-03-15T10:59:21;93466.56;;;11.36;36.83
41078;BME280;26823;42.662;23.352;2023-03-15T11:01:51;93468.09;;;11.10;37.29
41078;BME280;26823;42.662;23.352;2023-03-15T11:04:24;93464.41;;;10.98;37.22
41078;BME280;26823;42.662;23.352;2023-03-15T11:09:37;93453.22;;;10.82;38.13
41078;BME280;26823;42.662;23.352;2023-03-15T11:12:08;93447.22;;;10.53;38.36
41078;BME280;26823;42.662;23.352;2023-03-15T11:14:45;93463.13;;;10.55;38.35
41078;BME280;26823;42.662;23.352;2023-03-15T11:17:17;93441.28;;;10.11;39.32
41078;BME280;26823;42.662;23.352;2023-03-15T11:19:50;93445.66;;;10.07;39.22
41078;BME280;26823;42.662;23.352;2023-03-15T11:22:18;93412.16;;;9.85;39.49
41078;BME280;26823;42.662;23.352;2023-03-15T11:24:43;93447.69;;;10.47;38.96
41078;BME280;26823;42.662;23.352;2023-03-15T11:27:12;93443.94;;;10.65;38.49
41078;BME280;26823;42.662;23.352;2023-03-15T11:29:40;93463.13;;;10.55;38.32
41078;BME280;26823;42.662;23.352;2023-03-15T11:32:13;93446.09;;;10.86;38.36
41078;BME280;26823;42.662;23.352;2023-03-15T11:37:22;93443.56;;;10.98;37.62
41078;BME280;26823;42.662;23.352;2023-03-15T11:42:49;93437.28;;;11.38;36.98
41078;BME280;26823;42.662;23.352;2023-03-15T11:48:34;93432.09;;;10.92;37.37
41078;BME280;26823;42.662;23.352;2023-03-15T11:51:05;93417.75;;;10.83;37.77
41078;BME280;26823;42.662;23.352;2023-03-15T11:53:35;93434.00;;;10.83;37.41
41078;BME280;26823;42.662;23.352;2023-03-15T11:56:25;93435.41;;;10.81;37.79
41078;BME280;26823;42.662;23.352;2023-03-15T11:59:18;93433.53;;;10.90;37.90
41078;BME280;26823;42.662;23.352;2023-03-15T12:01:55;93427.22;;;11.38;37.72
41078;BME280;26823;42.662;23.352;2023-03-15T12:07:30;93430.13;;;11.51;37.11
41078;BME280;26823;42.662;23.352;2023-03-15T12:22:50;93396.19;;;12.06;36.39
41078;BME280;26823;42.662;23.352;2023-03-15T12:25:28;93410.28;;;12.29;36.23
41078;BME280;26823;42.662;23.352;2023-03-15T12:27:55;93407.34;;;11.78;36.51
41078;BME280;26823;42.662;23.352;2023-03-15T12:30:38;93380.25;;;11.78;36.00
41078;BME280;26823;42.662;23.352;2023-03-15T12:33:13;93409.09;;;12.00;36.23
41078;BME280;26823;42.662;23.352;2023-03-15T12:35:40;93380.59;;;11.50;36.73
41078;BME280;26823;42.662;23.352;2023-03-15T12:38:16;93394.41;;;11.84;36.24
41078;BME280;26823;42.662;23.352;2023-03-15T12:40:55;93401.75;;;11.92;36.08
41078;BME280;26823;42.662;23.352;2023-03-15T12:46:00;93392.84;;;11.39;36.90
41078;BME280;26823;42.662;23.352;2023-03-15T12:48:26;93393.97;;;11.64;36.75
41078;BME280;26823;42.662;23.352;2023-03-15T12:51:03;93392.53;;;11.58;37.63
41078;BME280;26823;42.662;23.352;2023-03-15T12:56:24;93395.06;;;11.72;37.63
41078;BME280;26823;42.662;23.352;2023-03-15T12:58:54;93398.09;;;11.70;37.15
41078;BME280;26823;42.662;23.352;2023-03-15T13:01:22;93405.31;;;12.40;39.04
41078;BME280;26823;42.662;23.352;2023-03-15T13:03:53;93387.69;;;12.25;38.41
41078;BME280;26823;42.662;23.352;2023-03-15T13:12:04;93385.94;;;11.94;42.15
41078;BME280;26823;42.662;23.352;2023-03-15T13:20:09;93391.31;;;12.29;40.58
41078;BME280;26823;42.662;23.352;2023-03-15T13:23:21;93384.66;;;12.18;40.48
41078;BME280;26823;42.662;23.352;2023-03-15T13:31:19;93391.09;;;11.78;40.93
41078;BME280;26823;42.662;23.352;2023-03-15T13:33:47;93386.78;;;11.68;41.63
41078;BME280;26823;42.662;23.352;2023-03-15T13:36:17;93393.31;;;11.50;41.75
41078;BME280;26823;42.662;23.352;2023-03-15T13:38:52;93401.00;;;11.56;41.18
41078;BME280;26823;42.662;23.352;2023-03-15T13:43:44;93396.97;;;11.89;40.95
41078;BME280;26823;42.662;23.352;2023-03-15T13:46:10;93389.19;;;11.96;41.15
41078;BME280;26823;42.662;23.352;2023-03-15T13:48:39;93396.81;;;11.68;41.38
41078;BME280;26823;42.662;23.352;2023-03-15T13:53:53;93399.69;;;11.98;40.40
41078;BME280;26823;42.662;23.352;2023-03-15T13:56:30;93394.56;;;11.87;40.78
41078;BME280;26823;42.662;23.352;2023-03-15T13:58:57;93400.28;;;12.12;40.56
41078;BME280;26823;42.662;23.352;2023-03-15T14:01:24;93367.16;;;11.89;40.59
41078;BME280;26823;42.662;23.352;2023-03-15T14:03:58;93391.88;;;11.87;40.20
41078;BME280;26823;42.662;23.352;2023-03-15T14:06:27;93403.66;;;11.91;40.46
41078;BME280;26823;42.662;23.352;2023-03-15T14:08:57;93384.84;;;11.95;40.49
41078;BME280;26823;42.662;23.352;2023-03-15T14:13:54;93385.06;;;11.29;40.97
41078;BME280;26823;42.662;23.352;2023-03-15T14:16:42;93356.41;;;11.28;40.69
41078;BME280;26823;42.662;23.352;2023-03-15T14:19:17;93390.59;;;11.32;41.81
41078;BME280;26823;42.662;23.352;2023-03-15T14:21:44;93389.47;;;11.16;41.47
41078;BME280;26823;42.662;23.352;2023-03-15T14:24:21;93403.22;;;11.54;41.38